Airfield :
LOGIN :

Register | Disclaimer

   EN    FR    IT 

 










Legend :    VFR   Marginal VFR   IFR   Intensive IFR   Very Intensive IFR
Visi :
Ceiling :
>= 8 km
>= 3000ft
5 to 8 km
1000 to 3000 ft
1500m to 5 km
500 to 1000 ft
800 to 1500m
200 to 500 ft
< 800m
< 200 ft
Symbols :   Thunderstorms  Fog  Heavy snow  Heavy precipitations  Wind > 20 kt
SIGMETs :     Misc.  Thunderstorms  Icing  Turbulence  Mountain Waves  Volcanic Ashes






- Airport Elevation : 1411 ft
- IATA code : ZHI


LSZG - Grenchen

CURRENT METAR :
  • 150950Z 24009KT 9999 FEW030 SCT055 BKN065 11/08 Q1009 NOSIG

EXPIRED METARs :
  • 150920Z 25007KT 9999 -RA FEW030 SCT055 BKN065 11/08 Q1009 NOSIG
  • 150850Z 23008KT 9999 -RA FEW030 SCT055 BKN065 10/08 Q1009 NOSIG
  • 150820Z 24007KT 9999 BKN060 BKN070 10/07 Q1009 NOSIG
  • 150750Z 22012KT 9999 SCT055 SCT065 10/07 Q1008 NOSIG
  • 150720Z 23012KT 9999 SCT060 09/07 Q1008 NOSIG

TAF TAF LSZG
Valid from the 15 at 09:00 until the 15 at 18:00 UTC


150825Z 1509/1518 23010KT 9999 BKN060
BECMG 1515/1518 VRB03KT CAVOK
ATIS : +41 32 396 96 33



MET'MAP, your aeronautical weather chart ! - Copyright ORBIFLY December 2007 - Disclaimer

ORBIFLY MET'MAP TEAM :

Programming & Development : Alexandra Zaïnal
Concept & original design : Baudouin d'Aumeries
Assistance for programming : Marc-Olivier Méhu
Technical & hardware support : Manuel Goepfert

Contact : metmap@orbifly.com




SOURCES & CREDITS :

   NOAA